Time,TemperatureF,DewpointF,PressureIn,WindDirection,WindDirectionDegrees,WindSpeedMPH,WindSpeedGustMPH,Humidity,HourlyPrecipIn,Conditions,Clouds,dailyrainin,SoftwareType,DateUTC
2013-02-04 00:02:00,5.0,-3.0,30.09,NNE,28,3.0,7.0,70,0.00,,,0.00,,2013-02-04 06:02:00,
2013-02-04 00:11:00,5.0,-3.0,30.09,NNE,28,3.0,7.0,70,0.00,,,0.00,,2013-02-04 06:11:00,
2013-02-04 00:21:00,5.0,-3.0,30.09,North,360,1.0,5.0,70,0.00,,,0.00,,2013-02-04 06:21:00,
2013-02-04 00:32:00,4.0,-4.0,30.10,ENE,77,1.0,7.0,70,0.00,,,0.00,,2013-02-04 06:32:00,
2013-02-04 00:42:00,4.0,-4.0,30.10,ENE,77,1.0,7.0,70,0.00,,,0.00,,2013-02-04 06:42:00,
2013-02-04 00:51:00,4.0,-4.0,30.10,West,263,1.0,7.0,69,0.00,,,0.00,,2013-02-04 06:51:00,
2013-02-04 01:02:00,4.0,-4.0,30.10,NW,321,0.0,6.0,69,0.00,,,0.00,,2013-02-04 07:02:00,
2013-02-04 01:11:00,4.0,-4.0,30.10,NW,321,0.0,6.0,69,0.00,,,0.00,,2013-02-04 07:11:00,
2013-02-04 01:21:00,4.0,-4.0,30.10,NW,307,3.0,7.0,69,0.00,,,0.00,,2013-02-04 07:21:00,
2013-02-04 01:32:00,4.0,-4.0,30.10,NW,307,3.0,7.0,69,0.00,,,0.00,,2013-02-04 07:32:00,
2013-02-04 01:42:00,4.0,-4.0,30.10,NW,307,3.0,7.0,69,0.00,,,0.00,,2013-02-04 07:42:00,
2013-02-04 01:52:00,3.0,-5.0,30.10,NNE,12,3.0,8.0,67,0.00,,,0.00,,2013-02-04 07:52:00,
2013-02-04 02:01:00,3.0,-6.0,30.10,NW,319,3.0,8.0,66,0.00,,,0.00,,2013-02-04 08:01:00,
2013-02-04 02:11:00,3.0,-6.0,30.10,NW,319,3.0,8.0,66,0.00,,,0.00,,2013-02-04 08:11:00,
2013-02-04 02:21:00,3.0,-6.0,30.10,NW,325,3.0,9.0,64,0.00,,,0.00,,2013-02-04 08:21:00,
2013-02-04 02:31:00,3.0,-7.0,30.12,NNW,337,2.0,9.0,63,0.00,,,0.00,,2013-02-04 08:31:00,
2013-02-04 02:42:00,3.0,-7.0,30.12,NNW,337,2.0,9.0,63,0.00,,,0.00,,2013-02-04 08:42:00,
2013-02-04 02:52:00,3.0,-6.0,30.12,NW,318,2.0,9.0,64,0.00,,,0.00,,2013-02-04 08:52:00,
2013-02-04 03:02:00,3.0,-7.0,30.12,WNW,294,2.0,7.0,63,0.00,,,0.00,,2013-02-04 09:02:00,
2013-02-04 03:11:00,3.0,-7.0,30.12,WNW,294,2.0,7.0,63,0.00,,,0.00,,2013-02-04 09:11:00,
2013-02-04 03:21:00,3.0,-7.0,30.13,WNW,302,3.0,9.0,61,0.00,,,0.00,,2013-02-04 09:21:00,
2013-02-04 03:32:00,3.0,-7.0,30.12,NNW,338,1.0,6.0,62,0.00,,,0.00,,2013-02-04 09:32:00,
2013-02-04 03:42:00,3.0,-7.0,30.12,NNW,338,1.0,6.0,62,0.00,,,0.00,,2013-02-04 09:42:00,
2013-02-04 03:51:00,3.0,-7.0,30.12,West,281,3.0,8.0,61,0.00,,,0.00,,2013-02-04 09:51:00,
2013-02-04 04:01:00,3.0,-7.0,30.13,NW,324,1.0,9.0,61,0.00,,,0.00,,2013-02-04 10:01:00,
2013-02-04 04:11:00,3.0,-7.0,30.13,NW,324,1.0,9.0,61,0.00,,,0.00,,2013-02-04 10:11:00,
2013-02-04 04:21:00,3.0,-7.0,30.12,NW,313,1.0,6.0,61,0.00,,,0.00,,2013-02-04 10:21:00,
2013-02-04 04:32:00,2.0,-8.0,30.12,WNW,302,0.0,5.0,61,0.00,,,0.00,,2013-02-04 10:32:00,
2013-02-04 04:41:00,2.0,-8.0,30.12,WNW,302,0.0,5.0,61,0.00,,,0.00,,2013-02-04 10:41:00,
2013-02-04 04:51:00,1.0,-9.0,30.13,NW,312,0.0,2.0,62,0.00,,,0.00,,2013-02-04 10:51:00,
2013-02-04 05:02:00,0.0,-9.0,30.14,WNW,292,0.0,3.0,64,0.00,,,0.00,,2013-02-04 11:02:00,
2013-02-04 05:11:00,0.0,-9.0,30.14,WNW,292,0.0,3.0,64,0.00,,,0.00,,2013-02-04 11:11:00,
2013-02-04 05:22:00,0.0,-9.0,30.14,WNW,285,0.0,4.0,64,0.00,,,0.00,,2013-02-04 11:22:00,
2013-02-04 05:32:00,0.0,-9.0,30.14,NW,315,0.0,4.0,65,0.00,,,0.00,,2013-02-04 11:32:00,
2013-02-04 05:42:00,0.0,-9.0,30.14,NW,315,0.0,4.0,65,0.00,,,0.00,,2013-02-04 11:42:00,
2013-02-04 05:52:00,0.0,-9.0,30.14,NW,320,0.0,3.0,65,0.00,,,0.00,,2013-02-04 11:52:00,
2013-02-04 06:02:00,-1.0,-10.0,30.14,West,281,0.0,2.0,64,0.00,,,0.00,,2013-02-04 12:02:00,
2013-02-04 06:12:00,-1.0,-10.0,30.14,West,281,0.0,2.0,64,0.00,,,0.00,,2013-02-04 12:12:00,
2013-02-04 06:22:00,-1.0,-9.0,30.14,NW,325,0.0,2.0,67,0.00,,,0.00,,2013-02-04 12:22:00,
2013-02-04 06:32:00,-2.0,-11.0,30.15,NW,322,0.0,1.0,66,0.00,,,0.00,,2013-02-04 12:32:00,
2013-02-04 06:42:00,-2.0,-11.0,30.15,NW,322,0.0,1.0,66,0.00,,,0.00,,2013-02-04 12:42:00,
2013-02-04 06:52:00,-3.0,-11.0,30.14,NW,322,0.0,1.0,68,0.00,,,0.00,,2013-02-04 12:52:00,
2013-02-04 07:02:00,-3.0,-11.0,30.14,WNW,283,0.0,2.0,69,0.00,,,0.00,,2013-02-04 13:02:00,
2013-02-04 07:12:00,-2.0,-9.0,30.14,WNW,283,0.0,2.0,70,0.00,,,0.00,,2013-02-04 13:12:00,
2013-02-04 07:21:00,-2.0,-9.0,30.14,WNW,283,0.0,2.0,70,0.00,,,0.00,,2013-02-04 13:21:00,
2013-02-04 07:33:00,-1.0,-8.0,30.14,West,271,1.0,3.0,70,0.00,,,0.00,,2013-02-04 13:33:00,
2013-02-04 07:42:00,-1.0,-8.0,30.14,West,271,1.0,3.0,70,0.00,,,0.00,,2013-02-04 13:42:00,
2013-02-04 07:51:00,-1.0,-9.0,30.14,West,271,1.0,3.0,69,0.00,,,0.00,,2013-02-04 13:51:00,
2013-02-04 08:03:00,0.0,-8.0,30.14,West,261,1.0,4.0,68,0.00,,,0.00,,2013-02-04 14:03:00,
2013-02-04 08:12:00,0.0,-8.0,30.14,West,261,1.0,4.0,68,0.00,,,0.00,,2013-02-04 14:12:00,
2013-02-04 08:22:00,0.0,-8.0,30.14,West,261,0.0,3.0,67,0.00,,,0.00,,2013-02-04 14:22:00,
2013-02-04 08:32:00,0.0,-9.0,30.14,West,261,0.0,2.0,66,0.00,,,0.00,,2013-02-04 14:32:00,
2013-02-04 08:42:00,0.0,-9.0,30.14,West,261,0.0,2.0,66,0.00,,,0.00,,2013-02-04 14:42:00,
2013-02-04 08:52:00,0.0,-9.0,30.15,West,261,0.0,1.0,65,0.00,,,0.00,,2013-02-04 14:52:00,
2013-02-04 09:03:00,0.0,-9.0,30.16,West,260,0.0,0.0,64,0.00,,,0.00,,2013-02-04 15:03:00,
2013-02-04 09:12:00,0.0,-9.0,30.16,West,260,0.0,0.0,64,0.00,,,0.00,,2013-02-04 15:12:00,
2013-02-04 09:23:00,1.0,-8.0,30.16,West,260,0.0,2.0,64,0.00,,,0.00,,2013-02-04 15:23:00,
2013-02-04 09:33:00,2.0,-8.0,30.16,West,279,1.0,3.0,62,0.00,,,0.00,,2013-02-04 15:33:00,
2013-02-04 09:43:00,2.0,-8.0,30.16,West,279,1.0,3.0,62,0.00,,,0.00,,2013-02-04 15:43:00,
2013-02-04 09:52:00,2.0,-8.0,30.14,WNW,291,0.0,2.0,61,0.00,,,0.00,,2013-02-04 15:52:00,
2013-02-04 10:03:00,3.0,-8.0,30.14,NW,325,0.0,2.0,60,0.00,,,0.00,,2013-02-04 16:03:00,
2013-02-04 10:11:00,3.0,-8.0,30.14,NW,325,0.0,2.0,60,0.00,,,0.00,,2013-02-04 16:11:00,
2013-02-04 10:22:00,3.0,-8.0,30.13,West,275,1.0,3.0,58,0.00,,,0.00,,2013-02-04 16:22:00,
2013-02-04 10:33:00,4.0,-7.0,30.11,SW,227,1.0,3.0,58,0.00,,,0.00,,2013-02-04 16:33:00,
2013-02-04 10:42:00,4.0,-7.0,30.11,SW,227,1.0,3.0,58,0.00,,,0.00,,2013-02-04 16:42:00,
2013-02-04 10:51:00,5.0,-8.0,30.12,SSW,205,2.0,5.0,55,0.00,,,0.00,,2013-02-04 16:51:00,
2013-02-04 11:02:00,5.0,-8.0,30.11,SW,234,1.0,5.0,54,0.00,,,0.00,,2013-02-04 17:02:00,
2013-02-04 11:11:00,5.0,-8.0,30.11,SW,234,1.0,5.0,54,0.00,,,0.00,,2013-02-04 17:11:00,
2013-02-04 11:21:00,7.0,-1.0,30.12,SSE,165,2.0,5.0,69,0.00,,,0.00,,2013-02-04 17:21:00,
2013-02-04 11:32:00,7.0,-2.0,30.11,South,174,2.0,5.0,67,0.00,,,0.00,,2013-02-04 17:32:00,
2013-02-04 11:42:00,7.0,-2.0,30.11,South,174,2.0,5.0,67,0.00,,,0.00,,2013-02-04 17:42:00,
2013-02-04 11:51:00,8.0,0.0,30.11,SSE,153,2.0,5.0,69,0.00,,,0.00,,2013-02-04 17:51:00,
2013-02-04 12:03:00,8.0,0.0,30.10,SE,140,4.0,7.0,69,0.00,,,0.00,,2013-02-04 18:03:00,
2013-02-04 12:11:00,8.0,0.0,30.10,SE,140,4.0,7.0,69,0.00,,,0.00,,2013-02-04 18:11:00,
2013-02-04 12:22:00,9.0,1.0,30.08,SE,136,6.0,10.0,70,0.00,,,0.00,,2013-02-04 18:22:00,
2013-02-04 12:32:00,10.0,2.0,30.05,SE,136,4.0,11.0,69,0.00,,,0.00,,2013-02-04 18:32:00,
2013-02-04 12:42:00,10.0,2.0,30.05,SE,136,4.0,11.0,69,0.00,,,0.00,,2013-02-04 18:42:00,
2013-02-04 12:52:00,10.0,1.0,30.04,SSW,204,5.0,11.0,65,0.00,,,0.00,,2013-02-04 18:52:00,
2013-02-04 13:02:00,11.0,1.0,30.02,SE,141,5.0,13.0,62,0.00,,,0.00,,2013-02-04 19:02:00,
2013-02-04 13:11:00,11.0,1.0,30.02,SE,141,5.0,13.0,62,0.00,,,0.00,,2013-02-04 19:11:00,
2013-02-04 13:22:00,12.0,2.0,30.02,SSE,151,7.0,14.0,62,0.00,,,0.00,,2013-02-04 19:22:00,
2013-02-04 13:32:00,13.0,2.0,30.02,South,181,5.0,10.0,60,0.00,,,0.00,,2013-02-04 19:32:00,
2013-02-04 13:42:00,13.0,2.0,30.02,South,181,5.0,10.0,60,0.00,,,0.00,,2013-02-04 19:42:00,
2013-02-04 13:51:00,15.0,6.0,30.02,WSW,243,5.0,11.0,68,0.00,,,0.00,,2013-02-04 19:51:00,
2013-02-04 14:02:00,15.0,6.0,30.02,SW,232,5.0,10.0,68,0.00,,,0.00,,2013-02-04 20:02:00,
2013-02-04 14:12:00,15.0,6.0,30.02,SW,232,5.0,10.0,68,0.00,,,0.00,,2013-02-04 20:12:00,
2013-02-04 14:22:00,15.0,6.0,30.02,SW,232,5.0,10.0,68,0.00,,,0.00,,2013-02-04 20:22:00,
2013-02-04 14:32:00,17.0,8.0,30.01,WSW,238,3.0,7.0,68,0.00,,,0.00,,2013-02-04 20:32:00,
2013-02-04 14:42:00,17.0,8.0,30.01,WSW,238,3.0,7.0,68,0.00,,,0.00,,2013-02-04 20:42:00,
2013-02-04 14:52:00,17.0,8.0,30.01,SW,235,2.0,7.0,68,0.00,,,0.00,,2013-02-04 20:52:00,
2013-02-04 15:02:00,18.0,10.0,30.00,SW,236,2.0,4.0,69,0.00,,,0.00,,2013-02-04 21:02:00,
2013-02-04 15:11:00,18.0,10.0,30.00,SW,236,2.0,4.0,69,0.00,,,0.00,,2013-02-04 21:11:00,
2013-02-04 15:22:00,18.0,8.0,29.98,West,259,2.0,5.0,65,0.00,,,0.00,,2013-02-04 21:22:00,
2013-02-04 15:32:00,18.0,8.0,29.97,South,180,4.0,7.0,64,0.00,,,0.00,,2013-02-04 21:32:00,
2013-02-04 15:42:00,18.0,8.0,29.97,South,180,4.0,7.0,64,0.00,,,0.00,,2013-02-04 21:42:00,
2013-02-04 15:52:00,18.0,7.0,29.96,SSE,167,6.0,11.0,62,0.00,,,0.00,,2013-02-04 21:52:00,
2013-02-04 16:02:00,18.0,7.0,29.96,South,180,4.0,8.0,61,0.00,,,0.00,,2013-02-04 22:02:00,
2013-02-04 16:12:00,18.0,7.0,29.96,South,180,4.0,8.0,61,0.00,,,0.00,,2013-02-04 22:12:00,
2013-02-04 16:21:00,17.0,5.0,29.94,SSW,194,5.0,11.0,59,0.00,,,0.00,,2013-02-04 22:21:00,
2013-02-04 16:32:00,17.0,6.0,29.94,SSE,166,4.0,8.0,61,0.00,,,0.00,,2013-02-04 22:32:00,
2013-02-04 16:42:00,17.0,6.0,29.94,SSE,166,4.0,8.0,61,0.00,,,0.00,,2013-02-04 22:42:00,
2013-02-04 16:51:00,17.0,6.0,29.93,South,182,4.0,8.0,62,0.00,,,0.00,,2013-02-04 22:51:00,
2013-02-04 17:01:00,17.0,7.0,29.92,SSW,196,5.0,10.0,63,0.00,,,0.00,,2013-02-04 23:01:00,
2013-02-04 17:11:00,17.0,7.0,29.92,SSW,196,5.0,10.0,63,0.00,,,0.00,,2013-02-04 23:11:00,
2013-02-04 17:21:00,17.0,7.0,29.90,SSE,156,4.0,8.0,65,0.00,,,0.00,,2013-02-04 23:21:00,
2013-02-04 17:32:00,18.0,8.0,29.91,South,190,5.0,8.0,65,0.00,,,0.00,,2013-02-04 23:32:00,
2013-02-04 17:42:00,18.0,8.0,29.91,South,190,5.0,8.0,65,0.00,,,0.00,,2013-02-04 23:42:00,
2013-02-04 17:52:00,18.0,9.0,29.90,SSW,205,4.0,10.0,66,0.00,,,0.00,,2013-02-04 23:52:00,
2013-02-04 18:01:00,18.0,9.0,29.90,WSW,241,5.0,13.0,67,0.00,,,0.00,,2013-02-05 00:01:00,
2013-02-04 18:11:00,18.0,9.0,29.90,WSW,241,5.0,13.0,67,0.00,,,0.00,,2013-02-05 00:11:00,
2013-02-04 18:22:00,19.0,10.0,29.89,SSW,210,6.0,12.0,67,0.00,,,0.00,,2013-02-05 00:22:00,
2013-02-04 18:32:00,19.0,10.0,29.88,SW,234,6.0,10.0,67,0.00,,,0.00,,2013-02-05 00:32:00,
2013-02-04 18:42:00,19.0,10.0,29.88,SW,234,6.0,10.0,67,0.00,,,0.00,,2013-02-05 00:42:00,
2013-02-04 18:51:00,19.0,10.0,29.88,SW,234,6.0,10.0,67,0.00,,,0.00,,2013-02-05 00:51:00,
2013-02-04 19:01:00,19.0,11.0,29.87,SW,232,7.0,12.0,71,0.00,,,0.00,,2013-02-05 01:01:00,
2013-02-04 19:11:00,19.0,11.0,29.87,SW,232,7.0,12.0,71,0.00,,,0.00,,2013-02-05 01:11:00,
2013-02-04 19:22:00,20.0,11.0,29.86,SW,232,6.0,12.0,69,0.00,,,0.00,,2013-02-05 01:22:00,
2013-02-04 19:32:00,20.0,11.0,29.85,SW,234,6.0,13.0,68,0.00,,,0.00,,2013-02-05 01:32:00,
2013-02-04 19:42:00,20.0,11.0,29.85,SW,234,6.0,13.0,68,0.00,,,0.00,,2013-02-05 01:42:00,
2013-02-04 19:52:00,21.0,12.0,29.85,SW,232,7.0,13.0,67,0.00,,,0.00,,2013-02-05 01:52:00,
2013-02-04 20:01:00,21.0,12.0,29.83,SW,228,6.0,11.0,67,0.00,,,0.00,,2013-02-05 02:01:00,
2013-02-04 20:11:00,21.0,12.0,29.83,SW,228,6.0,11.0,67,0.00,,,0.00,,2013-02-05 02:11:00,
2013-02-04 20:22:00,21.0,12.0,29.81,SSW,200,6.0,11.0,68,0.00,,,0.00,,2013-02-05 02:22:00,
2013-02-04 20:32:00,22.0,13.0,29.80,SW,218,7.0,17.0,68,0.00,,,0.00,,2013-02-05 02:32:00,
2013-02-04 20:41:00,22.0,13.0,29.80,SW,218,7.0,17.0,68,0.00,,,0.00,,2013-02-05 02:41:00,
2013-02-04 20:52:00,22.0,13.0,29.79,SSW,205,8.0,16.0,69,0.00,,,0.00,,2013-02-05 02:52:00,
2013-02-04 21:02:00,22.0,13.0,29.78,SW,235,6.0,17.0,69,0.00,,,0.00,,2013-02-05 03:02:00,
2013-02-04 21:11:00,22.0,13.0,29.78,SW,235,6.0,17.0,69,0.00,,,0.00,,2013-02-05 03:11:00,
2013-02-04 21:21:00,23.0,14.0,29.79,SSW,200,5.0,17.0,69,0.00,,,0.00,,2013-02-05 03:21:00,
2013-02-04 21:32:00,23.0,14.0,29.78,SSE,155,4.0,13.0,69,0.00,,,0.00,,2013-02-05 03:32:00,
2013-02-04 21:42:00,23.0,14.0,29.78,SSE,155,4.0,13.0,69,0.00,,,0.00,,2013-02-05 03:42:00,
2013-02-04 21:51:00,23.0,15.0,29.77,SSW,194,4.0,12.0,70,0.00,,,0.00,,2013-02-05 03:51:00,
2013-02-04 22:01:00,23.0,15.0,29.75,SSE,153,6.0,13.0,70,0.00,,,0.00,,2013-02-05 04:01:00,
2013-02-04 22:11:00,23.0,15.0,29.75,SSE,153,6.0,13.0,70,0.00,,,0.00,,2013-02-05 04:11:00,
2013-02-04 22:21:00,23.0,15.0,29.74,SSW,194,0.0,11.0,71,0.00,,,0.00,,2013-02-05 04:21:00,
2013-02-04 22:32:00,25.0,17.0,29.72,WSW,250,10.0,19.0,71,0.00,,,0.00,,2013-02-05 04:32:00,
2013-02-04 22:42:00,25.0,17.0,29.72,WSW,250,10.0,19.0,71,0.00,,,0.00,,2013-02-05 04:42:00,
2013-02-04 22:52:00,26.0,18.0,29.70,WSW,258,20.0,28.0,70,0.00,,,0.00,,2013-02-05 04:52:00,
2013-02-04 23:02:00,26.0,18.0,29.70,WSW,254,21.0,32.0,70,0.00,,,0.00,,2013-02-05 05:02:00,
2013-02-04 23:11:00,26.0,18.0,29.70,WSW,254,21.0,32.0,70,0.00,,,0.00,,2013-02-05 05:11:00,
2013-02-04 23:21:00,26.0,18.0,29.70,West,271,22.0,32.0,70,0.00,,,0.00,,2013-02-05 05:21:00,
2013-02-04 23:32:00,26.0,17.0,29.70,WSW,238,19.0,31.0,69,0.00,,,0.00,,2013-02-05 05:32:00,
2013-02-04 23:42:00,26.0,17.0,29.70,WSW,238,19.0,31.0,69,0.00,,,0.00,,2013-02-05 05:42:00,
2013-02-04 23:52:00,26.0,17.0,29.70,West,270,20.0,31.0,69,0.00,,,0.00,,2013-02-05 05:52:00,